Time;durP1;ratioP1;P1;durP2;ratioP2;P2;SDS_P1;SDS_P2;PMS_P1;PMS_P2;Temp;Humidity;BMP_temperature;BMP_pressure;BME280_temperature;BME280_humidity;BME280_pressure;Samples;Min_cycle;Max_cycle;Signal;HPM_P1;HPM_P2
2023/12/11 00:01:48;;;;;;;24.55;3.50;;;9.30;99.90;;;;;;5008123;28;20080;-76
2023/12/11 00:04:13;;;;;;;25.40;4.40;;;9.30;99.90;;;;;;5002473;28;20044;-76
2023/12/11 00:06:39;;;;;;;19.80;3.67;;;9.30;99.90;;;;;;4997997;28;20096;-76
2023/12/11 00:09:05;;;;;;;19.02;3.28;;;9.30;99.90;;;;;;5031013;28;20049;-76
2023/12/11 00:11:30;;;;;;;21.50;3.65;;;9.30;99.90;;;;;;5015329;28;20049;-76
2023/12/11 00:13:56;;;;;;;20.80;3.30;;;9.30;99.90;;;;;;5028558;28;20048;-76
2023/12/11 00:16:22;;;;;;;20.35;3.38;;;9.30;99.90;;;;;;5033627;28;20073;-76
2023/12/11 00:18:48;;;;;;;30.42;3.65;;;9.30;99.90;;;;;;5034783;28;20565;-76
2023/12/11 00:21:15;;;;;;;18.70;3.28;;;9.30;99.90;;;;;;5034681;28;21041;-76
2023/12/11 00:23:41;;;;;;;21.65;4.53;;;9.50;99.90;;;;;;5020006;28;20041;-76
2023/12/11 00:26:08;;;;;;;27.98;4.75;;;9.30;99.90;;;;;;5015156;28;20121;-76
2023/12/11 00:28:34;;;;;;;19.45;2.97;;;9.30;99.90;;;;;;5025252;28;20478;-76
2023/12/11 00:31:01;;;;;;;19.15;3.65;;;9.20;99.90;;;;;;5034448;28;20095;-76
2023/12/11 00:33:27;;;;;;;23.67;4.70;;;9.20;99.90;;;;;;5033448;28;20521;-76
2023/12/11 00:35:53;;;;;;;28.65;4.93;;;9.20;99.90;;;;;;5034469;28;20044;-76
2023/12/11 00:38:18;;;;;;;27.80;5.03;;;9.20;99.90;;;;;;5017894;28;20042;-76
2023/12/11 00:40:45;;;;;;;22.90;4.20;;;9.20;99.90;;;;;;5034299;28;20060;-76
2023/12/11 00:43:11;;;;;;;19.88;2.90;;;9.10;99.90;;;;;;5033566;28;20082;-76
2023/12/11 00:45:37;;;;;;;26.60;5.43;;;9.20;99.90;;;;;;5034503;28;20437;-76
2023/12/11 00:48:02;;;;;;;27.52;4.57;;;9.20;99.90;;;;;;5017930;28;20525;-76
2023/12/11 00:50:28;;;;;;;21.25;4.00;;;9.20;99.90;;;;;;5034348;28;20049;-76
2023/12/11 00:52:54;;;;;;;32.80;5.13;;;9.20;99.90;;;;;;5032480;28;20037;-76
2023/12/11 00:55:19;;;;;;;24.08;4.88;;;9.20;99.90;;;;;;5034134;28;20052;-76
2023/12/11 00:57:45;;;;;;;26.52;5.10;;;9.20;99.90;;;;;;5034112;28;20042;-76
2023/12/11 01:00:11;;;;;;;25.60;4.45;;;9.20;99.90;;;;;;5017341;28;20049;-76
2023/12/11 01:02:37;;;;;;;19.92;3.88;;;9.30;99.90;;;;;;5031026;28;20042;-76
2023/12/11 01:05:04;;;;;;;30.05;5.75;;;9.30;99.90;;;;;;5017416;28;20478;-76
2023/12/11 01:07:29;;;;;;;23.55;3.55;;;9.30;99.90;;;;;;5034192;28;20375;-76
2023/12/11 01:09:55;;;;;;;23.50;4.60;;;9.30;99.90;;;;;;5033832;28;20103;-76
2023/12/11 01:12:21;;;;;;;22.02;3.80;;;9.30;99.90;;;;;;5033358;28;20405;-76
2023/12/11 01:14:47;;;;;;;25.83;3.90;;;9.40;99.90;;;;;;5016293;28;20056;-76
2023/12/11 01:17:12;;;;;;;19.70;3.90;;;9.40;99.90;;;;;;5033303;28;20099;-76
2023/12/11 01:19:38;;;;;;;19.38;3.90;;;9.40;99.90;;;;;;5033586;28;20042;-76
2023/12/11 01:22:03;;;;;;;24.02;3.78;;;9.50;99.90;;;;;;5032835;28;20044;-76
2023/12/11 01:24:29;;;;;;;23.13;3.67;;;9.50;99.90;;;;;;5015246;28;20038;-76
2023/12/11 01:26:55;;;;;;;15.07;3.38;;;9.50;99.90;;;;;;5017300;28;20025;-75
2023/12/11 01:29:20;;;;;;;25.67;4.32;;;9.50;99.90;;;;;;5017265;28;20042;-75
2023/12/11 01:31:46;;;;;;;25.60;4.53;;;9.60;99.90;;;;;;5016787;28;20049;-76
2023/12/11 01:34:12;;;;;;;24.58;3.90;;;9.60;99.90;;;;;;5031691;28;20041;-76
2023/12/11 01:36:37;;;;;;;20.85;3.38;;;9.50;99.90;;;;;;5016836;28;20037;-76
2023/12/11 01:39:03;;;;;;;17.23;3.17;;;9.50;99.90;;;;;;5032444;28;20041;-76
2023/12/11 01:41:28;;;;;;;18.92;4.03;;;9.50;99.90;;;;;;5033293;28;20072;-76
2023/12/11 01:43:55;;;;;;;19.88;3.22;;;9.60;99.90;;;;;;5014882;28;20060;-76
2023/12/11 01:46:22;;;;;;;17.20;3.42;;;9.60;99.90;;;;;;5032110;28;20087;-76
2023/12/11 01:48:52;;;;;;;23.38;4.68;;;9.50;99.90;;;;;;5033353;28;20417;-76
2023/12/11 01:51:19;;;;;;;25.35;3.97;;;9.60;99.90;;;;;;5015894;28;20042;-76
2023/12/11 01:53:46;;;;;;;10.25;1.98;;;9.60;99.90;;;;;;5010723;28;20091;-75
2023/12/11 01:56:12;;;;;;;15.80;3.38;;;9.60;99.90;;;;;;5030526;28;20049;-76
2023/12/11 01:58:38;;;;;;;23.02;4.25;;;9.60;99.90;;;;;;5032896;28;20045;-76
2023/12/11 02:01:06;;;;;;;21.20;3.92;;;9.60;99.90;;;;;;5031961;28;20041;-76
2023/12/11 02:03:31;;;;;;;25.23;4.05;;;9.60;99.90;;;;;;5048516;28;20034;-75
2023/12/11 02:05:57;;;;;;;15.05;2.13;;;9.70;99.90;;;;;;5030748;28;20038;-76
2023/12/11 02:08:23;;;;;;;21.25;3.80;;;9.60;99.90;;;;;;5016312;28;20076;-76
2023/12/11 02:10:49;;;;;;;12.38;2.75;;;9.70;99.90;;;;;;5032664;28;20436;-76
2023/12/11 02:13:14;;;;;;;23.80;4.97;;;9.70;99.90;;;;;;5031878;28;20037;-76
2023/12/11 02:15:42;;;;;;;30.55;5.57;;;9.60;99.90;;;;;;5030526;28;20037;-76
2023/12/11 02:18:10;;;;;;;23.00;4.30;;;9.60;99.90;;;;;;5015138;28;20029;-76
2023/12/11 02:20:36;;;;;;;19.27;3.00;;;9.70;99.90;;;;;;5015930;28;20049;-76
2023/12/11 02:23:40;;;;;;;12.65;2.42;;;9.80;99.90;;;;;;5015700;28;20508;-76
2023/12/11 02:26:16;;;;;;;20.55;2.72;;;9.80;99.90;;;;;;4984021;28;20041;-76
2023/12/11 02:28:43;;;;;;;15.77;2.67;;;9.70;99.90;;;;;;5031837;28;20556;-76
2023/12/11 02:31:09;;;;;;;16.08;3.20;;;9.70;99.90;;;;;;5015783;28;20052;-76
2023/12/11 02:33:35;;;;;;;10.93;2.08;;;9.70;99.90;;;;;;5015123;28;20045;-76
2023/12/11 02:36:00;;;;;;;18.00;3.58;;;9.70;99.90;;;;;;5030323;28;20041;-76
2023/12/11 02:38:26;;;;;;;11.35;2.50;;;9.60;99.90;;;;;;5030556;28;20037;-76
2023/12/11 02:40:52;;;;;;;18.55;3.33;;;9.60;99.90;;;;;;5015754;28;20056;-76
2023/12/11 02:43:17;;;;;;;18.15;3.05;;;9.60;99.90;;;;;;5015256;28;20041;-76
2023/12/11 02:45:43;;;;;;;19.25;3.85;;;9.60;99.90;;;;;;5014330;28;20042;-76
2023/12/11 02:48:10;;;;;;;26.38;4.45;;;9.60;99.90;;;;;;5030940;28;20112;-76
2023/12/11 02:50:35;;;;;;;20.85;4.70;;;9.50;99.90;;;;;;5032312;28;20132;-76
2023/12/11 02:53:03;;;;;;;15.65;2.80;;;9.50;99.90;;;;;;5031199;28;20128;-75
2023/12/11 02:55:29;;;;;;;24.15;3.97;;;9.50;99.90;;;;;;5031193;28;20041;-76
2023/12/11 02:57:59;;;;;;;9.52;2.92;;;9.60;99.90;;;;;;5013963;28;20037;-76
2023/12/11 03:00:26;;;;;;;15.88;3.17;;;9.60;99.90;;;;;;5030768;28;20120;-76
2023/12/11 03:02:52;;;;;;;16.60;3.60;;;9.60;99.90;;;;;;5031826;28;20045;-76
2023/12/11 03:05:18;;;;;;;20.55;3.13;;;9.60;99.90;;;;;;5031908;28;20040;-76
2023/12/11 03:07:43;;;;;;;14.02;3.08;;;9.60;99.90;;;;;;5029936;28;20120;-76
2023/12/11 03:10:09;;;;;;;17.33;3.55;;;9.70;99.90;;;;;;5031871;28;20046;-76
2023/12/11 03:12:35;;;;;;;18.02;4.22;;;9.60;99.90;;;;;;5031476;28;20033;-76
2023/12/11 03:15:02;;;;;;;22.83;3.42;;;9.60;99.90;;;;;;5032124;28;20091;-76
2023/12/11 03:17:27;;;;;;;24.45;3.97;;;9.60;99.90;;;;;;5029773;28;20033;-76
2023/12/11 03:19:53;;;;;;;30.40;5.65;;;9.60;99.90;;;;;;5031642;28;20053;-76
2023/12/11 03:22:19;;;;;;;16.83;3.38;;;9.60;99.90;;;;;;5031038;28;20045;-76
2023/12/11 03:24:46;;;;;;;33.80;5.00;;;9.60;99.90;;;;;;5031604;28;20049;-76
2023/12/11 03:27:12;;;;;;;18.27;3.15;;;9.60;99.90;;;;;;5030838;28;20458;-76
2023/12/11 03:29:37;;;;;;;20.33;4.28;;;9.60;99.90;;;;;;5015079;28;20124;-76
2023/12/11 03:32:03;;;;;;;17.38;3.10;;;9.60;99.90;;;;;;5031662;28;20041;-76
2023/12/11 03:34:29;;;;;;;28.83;4.30;;;9.70;99.90;;;;;;5013799;28;20379;-76
2023/12/11 03:36:54;;;;;;;17.27;3.13;;;9.70;99.90;;;;;;5012319;28;20038;-77
2023/12/11 03:39:20;;;;;;;24.30;4.15;;;9.60;99.90;;;;;;5029140;28;20037;-76
2023/12/11 03:41:48;;;;;;;12.48;2.25;;;9.60;99.90;;;;;;5017373;28;20117;-76
2023/12/11 03:44:14;;;;;;;26.23;4.13;;;9.70;99.90;;;;;;5033514;28;20038;-76
2023/12/11 03:46:39;;;;;;;16.48;3.30;;;9.70;99.90;;;;;;5033384;28;20029;-76
2023/12/11 03:49:05;;;;;;;21.48;3.42;;;9.70;99.90;;;;;;5034223;28;20073;-76
2023/12/11 03:51:31;;;;;;;19.42;3.85;;;9.70;99.90;;;;;;5018252;28;20041;-77
2023/12/11 03:53:56;;;;;;;19.73;3.58;;;9.80;99.90;;;;;;5031719;28;20073;-76
2023/12/11 03:56:22;;;;;;;23.60;3.50;;;9.80;99.90;;;;;;5035285;28;20041;-77
2023/12/11 03:58:47;;;;;;;19.00;2.75;;;9.80;99.90;;;;;;5033964;28;20092;-77
2023/12/11 04:01:13;;;;;;;9.88;2.70;;;9.80;99.90;;;;;;5018751;28;20061;-76
2023/12/11 04:03:39;;;;;;;27.85;4.40;;;9.90;99.90;;;;;;5033524;28;20029;-76
2023/12/11 04:06:04;;;;;;;22.08;4.07;;;9.90;99.90;;;;;;5033014;28;20084;-76
2023/12/11 04:08:30;;;;;;;29.60;4.68;;;9.90;99.90;;;;;;5034963;28;20091;-76
2023/12/11 04:10:56;;;;;;;14.75;3.13;;;9.80;99.90;;;;;;5031831;28;20039;-76
2023/12/11 04:13:22;;;;;;;26.95;5.25;;;9.80;99.90;;;;;;5033838;28;20482;-76
2023/12/11 04:15:47;;;;;;;21.35;4.20;;;9.80;99.90;;;;;;5016190;28;20487;-76
2023/12/11 04:18:13;;;;;;;29.90;5.93;;;9.80;99.90;;;;;;5018395;28;20064;-76
2023/12/11 04:20:38;;;;;;;24.23;3.97;;;9.80;99.90;;;;;;5031974;28;20060;-76
2023/12/11 04:23:04;;;;;;;20.42;3.67;;;9.80;99.90;;;;;;5017231;28;20086;-76
2023/12/11 04:25:30;;;;;;;26.58;4.72;;;9.80;99.90;;;;;;5033529;28;20033;-76
2023/12/11 04:27:56;;;;;;;22.25;3.47;;;9.90;99.90;;;;;;5018649;28;20041;-76
2023/12/11 04:30:21;;;;;;;33.92;5.32;;;9.90;99.90;;;;;;5016451;28;20049;-76
2023/12/11 04:32:47;;;;;;;26.55;4.93;;;9.80;99.90;;;;;;5033041;28;20045;-76
2023/12/11 04:35:12;;;;;;;17.73;4.10;;;9.80;99.90;;;;;;5017709;28;20037;-76
2023/12/11 04:37:38;;;;;;;30.55;4.93;;;9.80;99.90;;;;;;5017919;28;20069;-76
2023/12/11 04:40:05;;;;;;;22.23;3.97;;;9.90;99.90;;;;;;5017986;28;20042;-76
2023/12/11 04:42:31;;;;;;;25.25;4.40;;;9.80;99.90;;;;;;5031667;28;20095;-76
2023/12/11 04:44:56;;;;;;;15.77;2.95;;;9.90;99.90;;;;;;5033433;28;20037;-75
2023/12/11 04:47:22;;;;;;;28.58;5.15;;;9.90;99.90;;;;;;5017413;28;20463;-75
2023/12/11 04:49:48;;;;;;;18.85;2.83;;;9.90;99.90;;;;;;5017662;28;20505;-74
2023/12/11 04:52:13;;;;;;;21.48;4.45;;;9.90;99.90;;;;;;5013245;28;20056;-75
2023/12/11 04:54:41;;;;;;;19.30;3.67;;;9.80;99.90;;;;;;5033394;28;20049;-75
2023/12/11 04:57:06;;;;;;;21.10;4.63;;;9.80;99.90;;;;;;5016554;28;20041;-75
2023/12/11 04:59:32;;;;;;;14.27;3.25;;;9.90;99.90;;;;;;5032797;28;20118;-76
2023/12/11 05:01:57;;;;;;;24.73;4.22;;;9.90;99.90;;;;;;5033337;28;20037;-76
2023/12/11 05:04:23;;;;;;;20.08;4.00;;;9.90;99.90;;;;;;5015526;28;20037;-76
2023/12/11 05:06:49;;;;;;;21.67;4.47;;;9.90;99.90;;;;;;5033904;28;20033;-76
2023/12/11 05:09:14;;;;;;;16.83;3.75;;;9.90;99.90;;;;;;5015368;28;20037;-76
2023/12/11 05:11:40;;;;;;;19.15;4.15;;;9.80;99.90;;;;;;5033815;28;20072;-75
2023/12/11 05:14:06;;;;;;;15.48;2.88;;;9.70;99.90;;;;;;5014558;28;20048;-75
2023/12/11 05:16:31;;;;;;;23.80;3.30;;;9.70;99.90;;;;;;5031797;28;20041;-75
2023/12/11 05:18:57;;;;;;;21.98;3.95;;;9.80;99.90;;;;;;5031590;28;20052;-75
2023/12/11 05:21:23;;;;;;;23.70;4.20;;;9.80;99.90;;;;;;5017266;28;20048;-75
2023/12/11 05:23:48;;;;;;;11.15;2.33;;;9.70;99.90;;;;;;5030750;28;20034;-76
2023/12/11 05:26:20;;;;;;;14.85;2.85;;;9.80;99.90;;;;;;5032784;28;20045;-76
2023/12/11 05:28:47;;;;;;;;;;;9.70;99.90;;;;;;5032431;28;20047;-76
2023/12/11 05:31:14;;;;;;;20.70;3.67;;;9.70;99.90;;;;;;5032400;28;20300;-76
2023/12/11 05:33:40;;;;;;;27.58;3.47;;;9.70;99.90;;;;;;5030363;28;20052;-76
2023/12/11 05:36:06;;;;;;;16.30;3.10;;;9.70;99.90;;;;;;5041745;28;20399;-76
2023/12/11 05:38:32;;;;;;;16.88;1.95;;;9.80;99.90;;;;;;5030552;28;20045;-76
2023/12/11 05:40:57;;;;;;;17.58;3.72;;;9.80;99.90;;;;;;5033312;28;20033;-75
2023/12/11 05:43:23;;;;;;;18.75;3.20;;;9.80;99.90;;;;;;5031314;28;20386;-76
2023/12/11 05:45:49;;;;;;;13.85;3.22;;;9.80;99.90;;;;;;5030273;28;20091;-76
2023/12/11 05:48:14;;;;;;;19.15;3.05;;;9.80;99.90;;;;;;5033136;28;20044;-76
2023/12/11 05:50:40;;;;;;;24.83;3.83;;;9.80;99.90;;;;;;5015766;28;20045;-76
2023/12/11 05:53:06;;;;;;;21.00;4.00;;;9.70;99.90;;;;;;5032232;28;20045;-76
2023/12/11 05:55:31;;;;;;;19.52;3.80;;;9.80;99.90;;;;;;5013849;28;20079;-76
2023/12/11 05:57:57;;;;;;;18.65;3.30;;;9.80;99.90;;;;;;5015671;28;20069;-76
2023/12/11 06:00:22;;;;;;;18.15;4.15;;;9.80;99.90;;;;;;5015401;28;20079;-76
2023/12/11 06:02:48;;;;;;;23.10;3.78;;;9.80;99.90;;;;;;5014610;28;20045;-76
2023/12/11 06:05:14;;;;;;;23.85;3.08;;;9.80;99.90;;;;;;5031801;28;20375;-76
2023/12/11 06:07:40;;;;;;;21.92;4.32;;;9.70;99.90;;;;;;5030093;28;20482;-76
2023/12/11 06:10:06;;;;;;;15.93;2.78;;;9.90;99.90;;;;;;5016329;28;20049;-76
2023/12/11 06:12:32;;;;;;;22.08;3.53;;;9.80;99.90;;;;;;5029630;28;20049;-76
2023/12/11 06:14:58;;;;;;;16.17;2.83;;;9.70;99.90;;;;;;5015424;28;20099;-76
2023/12/11 06:17:23;;;;;;;14.70;2.17;;;9.70;99.90;;;;;;5014536;28;20051;-76
2023/12/11 06:19:49;;;;;;;21.30;4.03;;;9.70;99.90;;;;;;5014201;28;20041;-76
2023/12/11 06:22:15;;;;;;;19.50;3.47;;;9.80;99.90;;;;;;5031994;28;20593;-76
2023/12/11 06:24:40;;;;;;;13.55;3.15;;;9.70;99.90;;;;;;5014194;28;20034;-76
2023/12/11 06:27:07;;;;;;;15.90;2.53;;;9.80;99.90;;;;;;5031657;28;20043;-76
2023/12/11 06:29:32;;;;;;;18.95;2.22;;;9.70;99.90;;;;;;5029843;28;20048;-76
2023/12/11 06:31:58;;;;;;;12.45;3.13;;;9.80;99.90;;;;;;5015660;28;20738;-76
2023/12/11 06:34:24;;;;;;;25.15;4.22;;;9.80;99.90;;;;;;5031498;28;20124;-76
2023/12/11 06:36:49;;;;;;;9.57;2.33;;;9.80;99.90;;;;;;5013806;28;20064;-76
2023/12/11 06:39:15;;;;;;;20.35;3.08;;;9.80;99.90;;;;;;5014763;28;20041;-76
2023/12/11 06:41:41;;;;;;;18.52;3.55;;;9.60;99.90;;;;;;5030296;28;20030;-76
2023/12/11 06:44:08;;;;;;;15.88;2.55;;;9.70;99.90;;;;;;5031623;28;20041;-76
2023/12/11 06:46:34;;;;;;;14.88;3.10;;;9.80;99.90;;;;;;5014096;28;20087;-76
2023/12/11 06:49:00;;;;;;;16.48;2.90;;;9.80;99.90;;;;;;5029943;28;20041;-76
2023/12/11 06:51:26;;;;;;;23.90;3.33;;;9.90;99.90;;;;;;5014562;28;20064;-75
2023/12/11 06:53:58;;;;;;;18.20;2.58;;;9.80;99.90;;;;;;5031147;28;20048;-75
2023/12/11 06:56:24;;;;;;;;;;;9.70;99.90;;;;;;5029047;28;20153;-76
2023/12/11 06:58:49;;;;;;;15.23;2.83;;;9.80;99.90;;;;;;5031672;28;19960;-76
2023/12/11 07:01:16;;;;;;;12.55;2.53;;;9.80;99.90;;;;;;5013688;28;20092;-75
2023/12/11 07:03:42;;;;;;;17.38;2.88;;;9.80;99.90;;;;;;5029177;28;20052;-75
2023/12/11 07:06:09;;;;;;;17.55;3.15;;;9.80;99.90;;;;;;5030703;28;20037;-75
2023/12/11 07:08:36;;;;;;;18.90;2.97;;;9.70;99.90;;;;;;5013911;28;20056;-75
2023/12/11 07:11:02;;;;;;;15.80;3.38;;;9.70;99.90;;;;;;5032135;28;20072;-75
2023/12/11 07:13:27;;;;;;;18.92;3.17;;;9.70;99.90;;;;;;5029927;28;20037;-75
2023/12/11 07:15:53;;;;;;;13.65;2.67;;;9.70;99.90;;;;;;5014249;28;20033;-75
2023/12/11 07:18:19;;;;;;;18.08;3.20;;;9.70;99.90;;;;;;5034637;28;20041;-75
2023/12/11 07:20:44;;;;;;;21.30;3.80;;;9.70;99.90;;;;;;5035832;28;20033;-75
2023/12/11 07:23:10;;;;;;;15.52;2.67;;;9.70;99.90;;;;;;5032916;28;20434;-75
2023/12/11 07:25:39;;;;;;;18.08;2.65;;;9.70;99.90;;;;;;5018324;28;20127;-75
2023/12/11 07:28:05;;;;;;;22.55;4.47;;;9.70;99.90;;;;;;5017545;28;20107;-75
2023/12/11 07:30:31;;;;;;;16.35;2.83;;;9.70;99.90;;;;;;5019517;28;20073;-75
2023/12/11 07:32:57;;;;;;;21.65;3.50;;;9.70;99.90;;;;;;5033690;28;20045;-75
2023/12/11 07:35:24;;;;;;;20.45;4.00;;;9.70;99.90;;;;;;5018362;28;20052;-75
2023/12/11 07:37:51;;;;;;;15.85;2.53;;;9.70;99.90;;;;;;5017864;28;20033;-76
2023/12/11 07:40:17;;;;;;;20.73;3.72;;;9.70;99.90;;;;;;5033647;28;20045;-75
2023/12/11 07:42:43;;;;;;;17.48;3.60;;;9.70;99.90;;;;;;5034345;28;20034;-76
2023/12/11 07:45:10;;;;;;;16.63;3.30;;;9.70;99.90;;;;;;5017272;28;20084;-76
2023/12/11 07:47:36;;;;;;;17.33;3.65;;;9.70;99.90;;;;;;5033206;28;20065;-76
2023/12/11 07:50:01;;;;;;;16.02;2.70;;;9.70;99.90;;;;;;5017681;28;20077;-75
2023/12/11 07:52:30;;;;;;;21.25;2.88;;;9.60;99.90;;;;;;5034311;28;20037;-76
2023/12/11 07:54:57;;;;;;;12.15;2.15;;;9.60;99.90;;;;;;5017631;28;20434;-75
2023/12/11 07:57:27;;;;;;;16.90;2.55;;;9.60;99.90;;;;;;5035371;28;20099;-75
2023/12/11 07:59:53;;;;;;;16.13;2.80;;;9.60;99.90;;;;;;5016675;28;20041;-75
2023/12/11 08:02:19;;;;;;;13.63;2.10;;;9.60;99.90;;;;;;5012616;28;20034;-75
2023/12/11 08:04:45;;;;;;;17.85;3.08;;;9.60;99.90;;;;;;5046096;28;20073;-75
2023/12/11 08:07:13;;;;;;;13.02;2.78;;;9.60;99.90;;;;;;5033115;28;20052;-75
2023/12/11 08:09:39;;;;;;;20.25;3.35;;;9.60;99.90;;;;;;5027388;28;20586;-75
2023/12/11 08:12:05;;;;;;;18.77;3.10;;;9.70;99.90;;;;;;5005841;28;20041;-75
2023/12/11 08:14:32;;;;;;;16.55;3.05;;;9.60;99.90;;;;;;5029976;28;20044;-75
2023/12/11 08:16:58;;;;;;;13.75;2.60;;;9.50;99.90;;;;;;5017249;28;20044;-75
2023/12/11 08:19:24;;;;;;;14.60;3.92;;;9.50;99.90;;;;;;5016447;28;20042;-75
2023/12/11 08:21:50;;;;;;;12.75;2.47;;;9.60;99.90;;;;;;5018352;28;20038;-75
2023/12/11 08:24:16;;;;;;;10.40;2.40;;;9.60;99.90;;;;;;5015043;28;20044;-75
2023/12/11 08:26:43;;;;;;;8.27;1.50;;;9.60;99.90;;;;;;5014335;28;20426;-75
2023/12/11 08:29:09;;;;;;;12.57;2.60;;;9.60;99.90;;;;;;4990321;28;20742;-75
2023/12/11 08:31:35;;;;;;;11.35;1.80;;;9.60;99.90;;;;;;5005126;28;20053;-75
2023/12/11 08:34:00;;;;;;;12.15;1.60;;;9.60;99.90;;;;;;4994571;28;20128;-75
2023/12/11 08:36:26;;;;;;;15.18;2.25;;;9.60;99.90;;;;;;4988713;28;20124;-75
2023/12/11 08:38:52;;;;;;;11.02;1.77;;;9.60;99.90;;;;;;5018001;28;20096;-84
2023/12/11 08:41:17;;;;;;;11.27;1.80;;;9.60;99.90;;;;;;5001959;28;20207;-74
2023/12/11 08:43:43;;;;;;;9.85;2.10;;;9.50;99.90;;;;;;5002039;28;20038;-76
2023/12/11 08:46:08;;;;;;;8.70;1.60;;;9.40;99.90;;;;;;5020113;28;20463;-76
2023/12/11 08:48:34;;;;;;;12.30;2.00;;;9.40;99.90;;;;;;5000112;28;20068;-76
2023/12/11 08:51:00;;;;;;;7.20;2.20;;;9.40;99.90;;;;;;4992905;28;20127;-76
2023/12/11 08:53:25;;;;;;;9.63;1.67;;;9.40;99.90;;;;;;5003483;28;20045;-76
2023/12/11 08:55:53;;;;;;;8.95;1.92;;;9.40;99.90;;;;;;5008195;28;20046;-76
2023/12/11 08:58:19;;;;;;;10.20;1.95;;;9.40;99.90;;;;;;5004063;28;20045;-76
2023/12/11 09:00:45;;;;;;;12.60;2.10;;;9.40;99.90;;;;;;5010467;28;20116;-76
2023/12/11 09:03:10;;;;;;;9.50;2.20;;;9.40;99.90;;;;;;5001997;28;20064;-76
2023/12/11 09:05:36;;;;;;;8.98;2.03;;;9.30;99.90;;;;;;5001106;28;20042;-76
2023/12/11 09:08:02;;;;;;;13.45;2.22;;;9.30;99.90;;;;;;5014046;28;20037;-76
2023/12/11 09:10:28;;;;;;;12.35;2.22;;;9.30;99.90;;;;;;5014444;28;20478;-76
2023/12/11 09:12:53;;;;;;;12.10;2.10;;;9.40;99.90;;;;;;5016796;28;20037;-76
2023/12/11 09:15:20;;;;;;;12.60;2.95;;;9.30;99.90;;;;;;5030223;28;20042;-76
2023/12/11 09:17:46;;;;;;;9.63;3.03;;;9.30;99.90;;;;;;4992256;28;20087;-76
2023/12/11 09:20:11;;;;;;;11.65;1.98;;;9.30;99.90;;;;;;5000449;28;20049;-76
2023/12/11 09:22:40;;;;;;;12.90;2.42;;;9.30;99.90;;;;;;4988818;28;20068;-76
2023/12/11 09:25:06;;;;;;;11.23;2.17;;;9.30;99.90;;;;;;5005652;28;20034;-76
2023/12/11 09:27:32;;;;;;;12.70;2.10;;;9.30;99.90;;;;;;4996429;28;20098;-76
2023/12/11 09:29:58;;;;;;;11.50;2.38;;;9.30;99.90;;;;;;4988810;28;20054;-76
2023/12/11 09:32:24;;;;;;;14.30;2.38;;;9.30;99.90;;;;;;4995810;28;20044;-76
2023/12/11 09:34:51;;;;;;;11.90;2.42;;;9.30;99.90;;;;;;4989450;28;20058;-76
2023/12/11 09:37:19;;;;;;;11.20;2.15;;;9.30;99.90;;;;;;5015380;28;20203;-76
2023/12/11 09:39:46;;;;;;;13.32;2.63;;;9.30;99.90;;;;;;5013706;28;20049;-76
2023/12/11 09:42:13;;;;;;;11.40;2.13;;;9.30;99.90;;;;;;5005973;28;20704;-76
2023/12/11 09:44:40;;;;;;;10.88;2.53;;;9.40;99.90;;;;;;5004443;28;20057;-77
2023/12/11 09:47:13;;;;;;;12.27;2.58;;;9.30;99.90;;;;;;4984377;28;21694;-76
2023/12/11 09:49:39;;;;;;;14.38;2.85;;;9.30;99.90;;;;;;5004460;28;20072;-76
2023/12/11 09:52:04;;;;;;;13.43;3.08;;;9.30;99.90;;;;;;5019623;28;20040;-76
2023/12/11 09:54:30;;;;;;;9.43;2.13;;;9.30;99.90;;;;;;5029150;28;20037;-76
2023/12/11 09:56:57;;;;;;;14.05;2.40;;;9.40;99.90;;;;;;5012134;28;20458;-76
2023/12/11 09:59:25;;;;;;;13.40;2.45;;;9.40;99.90;;;;;;5031932;28;20057;-76
2023/12/11 10:01:51;;;;;;;8.20;2.10;;;9.40;99.90;;;;;;5014639;28;20053;-76
2023/12/11 10:04:17;;;;;;;10.57;2.35;;;9.50;99.90;;;;;;5016024;28;20041;-77
2023/12/11 10:06:43;;;;;;;9.32;1.85;;;9.60;99.90;;;;;;5024676;28;20176;-77
2023/12/11 10:09:26;;;;;;;13.55;2.55;;;9.50;99.90;;;;;;5030110;28;20055;-76
2023/12/11 10:12:03;;;;;;;11.05;2.30;;;9.60;99.90;;;;;;4996481;28;20124;-76
2023/12/11 10:14:30;;;;;;;12.35;2.42;;;9.70;99.90;;;;;;5012676;28;20044;-76
2023/12/11 10:16:57;;;;;;;8.48;1.85;;;9.70;99.90;;;;;;5012938;28;20056;-76
2023/12/11 10:19:33;;;;;;;11.57;2.47;;;9.70;99.90;;;;;;5032711;28;20401;-77
2023/12/11 10:22:00;;;;;;;12.48;1.85;;;9.70;99.90;;;;;;5030124;28;20437;-77
2023/12/11 10:24:26;;;;;;;11.05;2.10;;;9.70;99.90;;;;;;5044482;28;20037;-76
2023/12/11 10:26:56;;;;;;;11.20;1.98;;;9.70;99.90;;;;;;5009970;28;20504;-77
2023/12/11 10:29:27;;;;;;;11.27;2.50;;;9.70;99.90;;;;;;5013409;28;20049;-76
2023/12/11 10:32:00;;;;;;;14.95;2.20;;;9.70;99.90;;;;;;5031375;28;20455;-76
2023/12/11 10:34:43;;;;;;;12.15;1.98;;;9.80;99.90;;;;;;5029545;28;20091;-76
2023/12/11 10:37:11;;;;;;;12.10;2.53;;;9.80;99.90;;;;;;5028691;28;20094;-76
2023/12/11 10:39:37;;;;;;;13.30;1.40;;;9.80;99.90;;;;;;5014122;28;20068;-76
2023/12/11 10:42:17;;;;;;;15.25;2.47;;;9.80;99.90;;;;;;5014366;28;20052;-76
2023/12/11 10:44:43;;;;;;;14.73;2.35;;;9.80;99.90;;;;;;5030222;28;20048;-76
2023/12/11 10:47:09;;;;;;;16.95;2.35;;;9.80;99.90;;;;;;5029773;28;20367;-76
2023/12/11 10:49:36;;;;;;;9.93;2.20;;;9.80;99.90;;;;;;5029800;28;20052;-76
2023/12/11 10:52:02;;;;;;;15.40;2.35;;;9.80;99.90;;;;;;5029845;28;20041;-76
2023/12/11 10:54:29;;;;;;;16.67;2.47;;;9.90;99.90;;;;;;5030479;28;20046;-76
2023/12/11 10:56:56;;;;;;;20.13;2.92;;;9.90;99.90;;;;;;5013207;28;20398;-76
2023/12/11 10:59:22;;;;;;;13.35;2.38;;;9.90;99.90;;;;;;5029740;28;20100;-76
2023/12/11 11:01:49;;;;;;;15.65;2.65;;;9.90;99.90;;;;;;5023194;28;20592;-76
2023/12/11 11:04:18;;;;;;;14.23;2.15;;;9.90;99.90;;;;;;5026749;28;20445;-76
2023/12/11 11:07:30;;;;;;;14.65;2.55;;;9.90;99.90;;;;;;5022219;28;20116;-76
2023/12/11 11:10:09;;;;;;;15.70;3.17;;;9.80;99.90;;;;;;4976707;28;20065;-76
2023/12/11 11:12:49;;;;;;;12.90;2.78;;;9.80;99.90;;;;;;5039985;28;20433;-76
2023/12/11 11:15:25;;;;;;;17.60;2.47;;;9.80;99.90;;;;;;5031394;28;20485;-76
2023/12/11 11:18:07;;;;;;;13.27;2.30;;;9.80;99.90;;;;;;5027797;28;20084;-76
2023/12/11 11:20:40;;;;;;;17.50;3.28;;;9.70;99.90;;;;;;5031083;28;20081;-76
2023/12/11 11:23:15;;;;;;;10.00;1.63;;;9.70;99.90;;;;;;5010765;28;20049;-76
2023/12/11 11:25:51;;;;;;;14.27;2.20;;;9.80;99.90;;;;;;5033224;28;20034;-76
2023/12/11 11:28:40;;;;;;;14.43;2.25;;;9.70;99.90;;;;;;5016178;28;20048;-76
2023/12/11 11:31:09;;;;;;;10.95;1.90;;;9.70;99.90;;;;;;5007780;28;20041;-76
2023/12/11 11:33:54;;;;;;;13.35;2.45;;;9.70;99.90;;;;;;4984729;28;20037;-76
2023/12/11 11:36:40;;;;;;;14.68;1.83;;;9.70;99.90;;;;;;4987561;28;20085;-76
2023/12/11 11:39:06;;;;;;;9.07;2.50;;;9.60;99.90;;;;;;4986160;28;20056;-76
2023/12/11 11:41:32;;;;;;;9.15;2.08;;;9.70;99.90;;;;;;4989573;28;20045;-76
2023/12/11 11:44:09;;;;;;;12.00;1.60;;;9.70;99.90;;;;;;5002361;28;20868;-76
2023/12/11 11:47:10;;;;;;;11.82;1.90;;;9.70;99.90;;;;;;4986626;28;20053;-76
2023/12/11 11:49:36;;;;;;;10.95;1.83;;;9.60;99.90;;;;;;4937191;28;20051;-76
2023/12/11 11:52:06;;;;;;;11.02;1.95;;;9.60;99.90;;;;;;4983894;28;20088;-77
2023/12/11 11:54:35;;;;;;;10.15;1.73;;;9.50;99.90;;;;;;4998316;28;20048;-76
2023/12/11 11:57:01;;;;;;;8.82;1.50;;;9.50;99.90;;;;;;5008907;28;20041;-81
2023/12/11 11:59:26;;;;;;;10.70;1.73;;;9.50;99.90;;;;;;5026673;28;20045;-80
2023/12/11 12:01:56;;;;;;;11.85;2.58;;;9.50;99.90;;;;;;5042889;28;20033;-80
2023/12/11 12:04:29;;;;;;;11.77;1.73;;;9.50;99.90;;;;;;5017710;28;20045;-82
2023/12/11 12:06:57;;;;;;;13.23;1.85;;;9.50;99.90;;;;;;5024946;28;20037;-80
2023/12/11 12:09:23;;;;;;;14.30;1.63;;;9.50;99.90;;;;;;5022204;28;20087;-81
2023/12/11 12:11:49;;;;;;;10.00;1.95;;;9.50;99.90;;;;;;5034958;28;20136;-80
2023/12/11 12:14:15;;;;;;;10.15;1.90;;;9.50;99.90;;;;;;5013102;28;20124;-80
2023/12/11 12:16:41;;;;;;;9.25;1.80;;;9.50;99.90;;;;;;5013222;28;20042;-80
2023/12/11 12:19:07;;;;;;;15.82;2.70;;;9.50;99.90;;;;;;5014411;28;20041;-80
2023/12/11 12:21:47;;;;;;;16.02;2.47;;;9.50;99.90;;;;;;5012470;28;20120;-80
2023/12/11 12:24:12;;;;;;;18.23;2.65;;;9.50;99.90;;;;;;5015583;28;20741;-80
2023/12/11 12:26:39;;;;;;;14.73;3.08;;;9.50;99.90;;;;;;5011590;28;20026;-80
2023/12/11 12:29:07;;;;;;;11.68;2.60;;;9.50;99.90;;;;;;5032013;28;20042;-80
2023/12/11 12:31:33;;;;;;;21.30;3.67;;;9.50;99.90;;;;;;5013310;28;20045;-80
2023/12/11 12:33:59;;;;;;;18.42;3.05;;;9.50;99.90;;;;;;5030132;28;20448;-80
2023/12/11 12:36:24;;;;;;;15.13;2.90;;;9.50;99.90;;;;;;5011718;28;20073;-81
2023/12/11 12:38:50;;;;;;;10.93;2.10;;;9.40;99.90;;;;;;5006657;28;20107;-80
2023/12/11 12:41:17;;;;;;;15.32;2.10;;;9.40;99.90;;;;;;5021156;28;20505;-80
2023/12/11 12:43:43;;;;;;;12.98;2.00;;;9.40;99.90;;;;;;5038206;28;20103;-80
2023/12/11 12:46:08;;;;;;;10.85;1.70;;;9.40;99.90;;;;;;5034115;28;20429;-80
2023/12/11 12:48:34;;;;;;;9.88;2.15;;;9.40;99.90;;;;;;5034108;28;20120;-80